sensor_id;sensor_type;location;lat;lon;timestamp;P1;durP1;ratioP1;P2;durP2;ratioP2
70410;SDS011;57832;46.038;11.398;2022-07-01T00:01:57;0.00;;;0.00;;
70410;SDS011;57832;46.038;11.398;2022-07-01T00:04:23;0.00;;;0.00;;
70410;SDS011;57832;46.038;11.398;2022-07-01T00:06:52;0.00;;;0.00;;
70410;SDS011;57832;46.038;11.398;2022-07-01T00:09:21;0.00;;;0.00;;
70410;SDS011;57832;46.038;11.398;2022-07-01T00:11:46;0.00;;;0.00;;
70410;SDS011;57832;46.038;11.398;2022-07-01T00:14:12;0.00;;;0.00;;
70410;SDS011;57832;46.038;11.398;2022-07-01T00:16:38;0.00;;;0.00;;
70410;SDS011;57832;46.038;11.398;2022-07-01T00:19:04;0.00;;;0.00;;
70410;SDS011;57832;46.038;11.398;2022-07-01T00:23:56;0.00;;;0.00;;
70410;SDS011;57832;46.038;11.398;2022-07-01T00:26:21;0.00;;;0.00;;
70410;SDS011;57832;46.038;11.398;2022-07-01T00:28:47;0.00;;;0.00;;
70410;SDS011;57832;46.038;11.398;2022-07-01T00:31:13;0.00;;;0.00;;
70410;SDS011;57832;46.038;11.398;2022-07-01T00:33:38;0.00;;;0.00;;
70410;SDS011;57832;46.038;11.398;2022-07-01T00:36:04;0.00;;;0.00;;
70410;SDS011;57832;46.038;11.398;2022-07-01T00:38:29;0.00;;;0.00;;
70410;SDS011;57832;46.038;11.398;2022-07-01T00:40:55;0.00;;;0.00;;
70410;SDS011;57832;46.038;11.398;2022-07-01T00:43:21;0.00;;;0.00;;
70410;SDS011;57832;46.038;11.398;2022-07-01T00:45:51;0.00;;;0.00;;
70410;SDS011;57832;46.038;11.398;2022-07-01T00:48:18;0.00;;;0.00;;
70410;SDS011;57832;46.038;11.398;2022-07-01T00:50:46;0.00;;;0.00;;
70410;SDS011;57832;46.038;11.398;2022-07-01T00:53:13;0.00;;;0.00;;
70410;SDS011;57832;46.038;11.398;2022-07-01T00:55:40;0.00;;;0.00;;
70410;SDS011;57832;46.038;11.398;2022-07-01T00:58:07;0.00;;;0.00;;
70410;SDS011;57832;46.038;11.398;2022-07-01T01:00:34;0.00;;;0.00;;
70410;SDS011;57832;46.038;11.398;2022-07-01T01:03:00;0.00;;;0.00;;
70410;SDS011;57832;46.038;11.398;2022-07-01T01:05:26;0.00;;;0.00;;
70410;SDS011;57832;46.038;11.398;2022-07-01T01:07:51;0.00;;;0.00;;
70410;SDS011;57832;46.038;11.398;2022-07-01T01:10:17;0.00;;;0.00;;
70410;SDS011;57832;46.038;11.398;2022-07-01T01:12:44;0.00;;;0.00;;
70410;SDS011;57832;46.038;11.398;2022-07-01T01:15:09;0.00;;;0.00;;
70410;SDS011;57832;46.038;11.398;2022-07-01T01:17:36;0.00;;;0.00;;
70410;SDS011;57832;46.038;11.398;2022-07-01T01:20:02;0.00;;;0.00;;
70410;SDS011;57832;46.038;11.398;2022-07-01T01:22:28;0.00;;;0.00;;
70410;SDS011;57832;46.038;11.398;2022-07-01T01:24:54;0.00;;;0.00;;
70410;SDS011;57832;46.038;11.398;2022-07-01T01:27:22;0.00;;;0.00;;
70410;SDS011;57832;46.038;11.398;2022-07-01T01:29:48;0.00;;;0.00;;
70410;SDS011;57832;46.038;11.398;2022-07-01T02:28:21;0.00;;;0.00;;
70410;SDS011;57832;46.038;11.398;2022-07-01T02:30:47;0.00;;;0.00;;
70410;SDS011;57832;46.038;11.398;2022-07-01T02:33:13;0.00;;;0.00;;
70410;SDS011;57832;46.038;11.398;2022-07-01T02:35:39;0.00;;;0.00;;
70410;SDS011;57832;46.038;11.398;2022-07-01T02:38:06;0.00;;;0.00;;
70410;SDS011;57832;46.038;11.398;2022-07-01T02:40:35;0.00;;;0.00;;
70410;SDS011;57832;46.038;11.398;2022-07-01T02:43:08;0.00;;;0.00;;
70410;SDS011;57832;46.038;11.398;2022-07-01T02:45:34;0.00;;;0.00;;
70410;SDS011;57832;46.038;11.398;2022-07-01T02:48:00;0.00;;;0.00;;
70410;SDS011;57832;46.038;11.398;2022-07-01T02:50:26;0.00;;;0.00;;
70410;SDS011;57832;46.038;11.398;2022-07-01T02:52:52;0.00;;;0.00;;
70410;SDS011;57832;46.038;11.398;2022-07-01T02:55:18;0.00;;;0.00;;
70410;SDS011;57832;46.038;11.398;2022-07-01T02:57:43;0.00;;;0.00;;
70410;SDS011;57832;46.038;11.398;2022-07-01T03:00:10;0.00;;;0.00;;
70410;SDS011;57832;46.038;11.398;2022-07-01T03:02:38;0.00;;;0.00;;
70410;SDS011;57832;46.038;11.398;2022-07-01T03:05:04;0.00;;;0.00;;
70410;SDS011;57832;46.038;11.398;2022-07-01T03:09:56;0.00;;;0.00;;
70410;SDS011;57832;46.038;11.398;2022-07-01T03:12:21;0.00;;;0.00;;
70410;SDS011;57832;46.038;11.398;2022-07-01T03:14:59;0.00;;;0.00;;
70410;SDS011;57832;46.038;11.398;2022-07-01T03:17:27;0.00;;;0.00;;
70410;SDS011;57832;46.038;11.398;2022-07-01T03:19:54;0.00;;;0.00;;
70410;SDS011;57832;46.038;11.398;2022-07-01T03:22:21;0.00;;;0.00;;
70410;SDS011;57832;46.038;11.398;2022-07-01T03:24:48;0.00;;;0.00;;
70410;SDS011;57832;46.038;11.398;2022-07-01T03:27:14;0.00;;;0.00;;
70410;SDS011;57832;46.038;11.398;2022-07-01T03:29:40;0.00;;;0.00;;
70410;SDS011;57832;46.038;11.398;2022-07-01T03:32:07;0.00;;;0.00;;
70410;SDS011;57832;46.038;11.398;2022-07-01T03:34:34;0.00;;;0.00;;
70410;SDS011;57832;46.038;11.398;2022-07-01T03:37:04;0.00;;;0.00;;
70410;SDS011;57832;46.038;11.398;2022-07-01T03:39:30;0.00;;;0.00;;
70410;SDS011;57832;46.038;11.398;2022-07-01T03:41:56;0.00;;;0.00;;
70410;SDS011;57832;46.038;11.398;2022-07-01T03:44:21;0.00;;;0.00;;
70410;SDS011;57832;46.038;11.398;2022-07-01T03:46:47;0.00;;;0.00;;
70410;SDS011;57832;46.038;11.398;2022-07-01T03:49:12;0.00;;;0.00;;
70410;SDS011;57832;46.038;11.398;2022-07-01T03:51:38;0.00;;;0.00;;
70410;SDS011;57832;46.038;11.398;2022-07-01T03:54:03;0.00;;;0.00;;
70410;SDS011;57832;46.038;11.398;2022-07-01T03:56:47;0.00;;;0.00;;
70410;SDS011;57832;46.038;11.398;2022-07-01T03:59:13;0.00;;;0.00;;
70410;SDS011;57832;46.038;11.398;2022-07-01T04:01:38;0.00;;;0.00;;
70410;SDS011;57832;46.038;11.398;2022-07-01T04:04:04;0.00;;;0.00;;
70410;SDS011;57832;46.038;11.398;2022-07-01T04:06:29;0.00;;;0.00;;
70410;SDS011;57832;46.038;11.398;2022-07-01T04:08:55;0.00;;;0.00;;
70410;SDS011;57832;46.038;11.398;2022-07-01T04:11:21;0.00;;;0.00;;
70410;SDS011;57832;46.038;11.398;2022-07-01T04:13:47;0.00;;;0.00;;
70410;SDS011;57832;46.038;11.398;2022-07-01T04:16:16;0.00;;;0.00;;
70410;SDS011;57832;46.038;11.398;2022-07-01T04:18:42;0.00;;;0.00;;
70410;SDS011;57832;46.038;11.398;2022-07-01T04:21:08;0.00;;;0.00;;
70410;SDS011;57832;46.038;11.398;2022-07-01T04:23:52;0.00;;;0.00;;
70410;SDS011;57832;46.038;11.398;2022-07-01T04:26:17;0.00;;;0.00;;
70410;SDS011;57832;46.038;11.398;2022-07-01T04:28:43;0.00;;;0.00;;
70410;SDS011;57832;46.038;11.398;2022-07-01T04:31:09;0.00;;;0.00;;
70410;SDS011;57832;46.038;11.398;2022-07-01T04:33:34;0.00;;;0.00;;
70410;SDS011;57832;46.038;11.398;2022-07-01T04:36:00;0.00;;;0.00;;
70410;SDS011;57832;46.038;11.398;2022-07-01T04:38:25;0.00;;;0.00;;
70410;SDS011;57832;46.038;11.398;2022-07-01T04:40:51;0.00;;;0.00;;
70410;SDS011;57832;46.038;11.398;2022-07-01T04:43:35;0.00;;;0.00;;
70410;SDS011;57832;46.038;11.398;2022-07-01T04:46:00;0.00;;;0.00;;
70410;SDS011;57832;46.038;11.398;2022-07-01T04:48:26;0.00;;;0.00;;
70410;SDS011;57832;46.038;11.398;2022-07-01T04:50:51;0.00;;;0.00;;
70410;SDS011;57832;46.038;11.398;2022-07-01T04:53:17;0.00;;;0.00;;
70410;SDS011;57832;46.038;11.398;2022-07-01T04:55:42;0.00;;;0.00;;
70410;SDS011;57832;46.038;11.398;2022-07-01T04:58:08;0.00;;;0.00;;
70410;SDS011;57832;46.038;11.398;2022-07-01T05:00:33;0.00;;;0.00;;
70410;SDS011;57832;46.038;11.398;2022-07-01T05:02:59;0.00;;;0.00;;
70410;SDS011;57832;46.038;11.398;2022-07-01T05:05:24;0.00;;;0.00;;
70410;SDS011;57832;46.038;11.398;2022-07-01T05:07:50;0.00;;;0.00;;
70410;SDS011;57832;46.038;11.398;2022-07-01T05:10:16;0.00;;;0.00;;
70410;SDS011;57832;46.038;11.398;2022-07-01T05:12:41;0.00;;;0.00;;
70410;SDS011;57832;46.038;11.398;2022-07-01T05:15:07;0.00;;;0.00;;
70410;SDS011;57832;46.038;11.398;2022-07-01T05:17:33;0.00;;;0.00;;
70410;SDS011;57832;46.038;11.398;2022-07-01T05:20:17;0.00;;;0.00;;
70410;SDS011;57832;46.038;11.398;2022-07-01T05:23:01;0.00;;;0.00;;
70410;SDS011;57832;46.038;11.398;2022-07-01T05:25:27;0.00;;;0.00;;
70410;SDS011;57832;46.038;11.398;2022-07-01T05:27:53;0.00;;;0.00;;
70410;SDS011;57832;46.038;11.398;2022-07-01T05:30:21;0.00;;;0.00;;
70410;SDS011;57832;46.038;11.398;2022-07-01T05:32:47;0.00;;;0.00;;
70410;SDS011;57832;46.038;11.398;2022-07-01T05:35:12;0.00;;;0.00;;
70410;SDS011;57832;46.038;11.398;2022-07-01T05:37:39;0.00;;;0.00;;
70410;SDS011;57832;46.038;11.398;2022-07-01T05:40:06;0.00;;;0.00;;
70410;SDS011;57832;46.038;11.398;2022-07-01T05:42:32;0.00;;;0.00;;
70410;SDS011;57832;46.038;11.398;2022-07-01T05:44:58;0.00;;;0.00;;
70410;SDS011;57832;46.038;11.398;2022-07-01T05:47:23;0.00;;;0.00;;
70410;SDS011;57832;46.038;11.398;2022-07-01T05:49:49;0.00;;;0.00;;
70410;SDS011;57832;46.038;11.398;2022-07-01T05:52:14;0.00;;;0.00;;
70410;SDS011;57832;46.038;11.398;2022-07-01T05:54:40;0.00;;;0.00;;
70410;SDS011;57832;46.038;11.398;2022-07-01T05:57:06;0.00;;;0.00;;
70410;SDS011;57832;46.038;11.398;2022-07-01T05:59:31;0.00;;;0.00;;
70410;SDS011;57832;46.038;11.398;2022-07-01T06:01:58;0.00;;;0.00;;
70410;SDS011;57832;46.038;11.398;2022-07-01T06:06:48;0.00;;;0.00;;
70410;SDS011;57832;46.038;11.398;2022-07-01T06:09:14;0.00;;;0.00;;
70410;SDS011;57832;46.038;11.398;2022-07-01T06:11:40;0.00;;;0.00;;
70410;SDS011;57832;46.038;11.398;2022-07-01T06:14:05;0.00;;;0.00;;
70410;SDS011;57832;46.038;11.398;2022-07-01T06:16:31;0.00;;;0.00;;
70410;SDS011;57832;46.038;11.398;2022-07-01T06:18:56;0.00;;;0.00;;
70410;SDS011;57832;46.038;11.398;2022-07-01T06:21:22;0.00;;;0.00;;
70410;SDS011;57832;46.038;11.398;2022-07-01T06:23:47;0.00;;;0.00;;
70410;SDS011;57832;46.038;11.398;2022-07-01T06:26:13;0.00;;;0.00;;
70410;SDS011;57832;46.038;11.398;2022-07-01T06:31:04;0.00;;;0.00;;
70410;SDS011;57832;46.038;11.398;2022-07-01T06:33:30;0.00;;;0.00;;
70410;SDS011;57832;46.038;11.398;2022-07-01T06:35:57;0.00;;;0.00;;
70410;SDS011;57832;46.038;11.398;2022-07-01T06:38:23;0.00;;;0.00;;
70410;SDS011;57832;46.038;11.398;2022-07-01T06:40:49;0.00;;;0.00;;
70410;SDS011;57832;46.038;11.398;2022-07-01T06:43:33;0.00;;;0.00;;
70410;SDS011;57832;46.038;11.398;2022-07-01T06:46:00;0.00;;;0.00;;
70410;SDS011;57832;46.038;11.398;2022-07-01T06:48:25;0.00;;;0.00;;
70410;SDS011;57832;46.038;11.398;2022-07-01T06:50:51;0.00;;;0.00;;
70410;SDS011;57832;46.038;11.398;2022-07-01T06:53:17;0.00;;;0.00;;
70410;SDS011;57832;46.038;11.398;2022-07-01T06:55:42;0.00;;;0.00;;
70410;SDS011;57832;46.038;11.398;2022-07-01T06:58:08;0.00;;;0.00;;
70410;SDS011;57832;46.038;11.398;2022-07-01T07:00:35;0.00;;;0.00;;
70410;SDS011;57832;46.038;11.398;2022-07-01T07:03:01;0.00;;;0.00;;
70410;SDS011;57832;46.038;11.398;2022-07-01T07:05:27;0.00;;;0.00;;
70410;SDS011;57832;46.038;11.398;2022-07-01T07:07:55;0.00;;;0.00;;
70410;SDS011;57832;46.038;11.398;2022-07-01T07:10:20;0.00;;;0.00;;
70410;SDS011;57832;46.038;11.398;2022-07-01T07:15:11;0.00;;;0.00;;
70410;SDS011;57832;46.038;11.398;2022-07-01T07:20:02;0.00;;;0.00;;
70410;SDS011;57832;46.038;11.398;2022-07-01T07:24:53;0.00;;;0.00;;
70410;SDS011;57832;46.038;11.398;2022-07-01T07:27:19;0.00;;;0.00;;
70410;SDS011;57832;46.038;11.398;2022-07-01T07:29:44;0.00;;;0.00;;
70410;SDS011;57832;46.038;11.398;2022-07-01T07:32:10;0.00;;;0.00;;
70410;SDS011;57832;46.038;11.398;2022-07-01T07:34:35;0.00;;;0.00;;
70410;SDS011;57832;46.038;11.398;2022-07-01T07:37:02;0.00;;;0.00;;
70410;SDS011;57832;46.038;11.398;2022-07-01T07:39:28;0.00;;;0.00;;
70410;SDS011;57832;46.038;11.398;2022-07-01T07:41:54;0.00;;;0.00;;
70410;SDS011;57832;46.038;11.398;2022-07-01T07:44:19;0.00;;;0.00;;
70410;SDS011;57832;46.038;11.398;2022-07-01T07:46:45;0.00;;;0.00;;
70410;SDS011;57832;46.038;11.398;2022-07-01T07:49:10;0.00;;;0.00;;
70410;SDS011;57832;46.038;11.398;2022-07-01T07:51:36;0.00;;;0.00;;
70410;SDS011;57832;46.038;11.398;2022-07-01T07:54:01;0.00;;;0.00;;
70410;SDS011;57832;46.038;11.398;2022-07-01T07:56:28;0.00;;;0.00;;
70410;SDS011;57832;46.038;11.398;2022-07-01T07:58:54;0.00;;;0.00;;
70410;SDS011;57832;46.038;11.398;2022-07-01T08:01:20;0.00;;;0.00;;
70410;SDS011;57832;46.038;11.398;2022-07-01T08:03:45;0.00;;;0.00;;
70410;SDS011;57832;46.038;11.398;2022-07-01T08:06:11;0.00;;;0.00;;
70410;SDS011;57832;46.038;11.398;2022-07-01T08:08:37;0.00;;;0.00;;
70410;SDS011;57832;46.038;11.398;2022-07-01T08:11:03;0.10;;;0.10;;
70410;SDS011;57832;46.038;11.398;2022-07-01T08:13:29;0.00;;;0.00;;
70410;SDS011;57832;46.038;11.398;2022-07-01T08:15:55;0.00;;;0.00;;
70410;SDS011;57832;46.038;11.398;2022-07-01T08:18:21;0.00;;;0.00;;
70410;SDS011;57832;46.038;11.398;2022-07-01T08:20:46;0.10;;;0.10;;
70410;SDS011;57832;46.038;11.398;2022-07-01T08:23:12;0.10;;;0.10;;
70410;SDS011;57832;46.038;11.398;2022-07-01T08:25:39;0.10;;;0.10;;
70410;SDS011;57832;46.038;11.398;2022-07-01T08:28:05;0.20;;;0.20;;
70410;SDS011;57832;46.038;11.398;2022-07-01T08:30:30;0.20;;;0.20;;
70410;SDS011;57832;46.038;11.398;2022-07-01T08:32:56;0.20;;;0.20;;
70410;SDS011;57832;46.038;11.398;2022-07-01T08:35:22;0.20;;;0.20;;
70410;SDS011;57832;46.038;11.398;2022-07-01T08:37:48;0.15;;;0.15;;
70410;SDS011;57832;46.038;11.398;2022-07-01T08:40:13;0.20;;;0.20;;
70410;SDS011;57832;46.038;11.398;2022-07-01T08:42:39;0.20;;;0.20;;
70410;SDS011;57832;46.038;11.398;2022-07-01T08:45:04;0.20;;;0.20;;
70410;SDS011;57832;46.038;11.398;2022-07-01T08:47:30;0.20;;;0.20;;
70410;SDS011;57832;46.038;11.398;2022-07-01T08:49:58;0.30;;;0.30;;
70410;SDS011;57832;46.038;11.398;2022-07-01T08:52:25;0.30;;;0.30;;
70410;SDS011;57832;46.038;11.398;2022-07-01T08:54:51;0.30;;;0.30;;
70410;SDS011;57832;46.038;11.398;2022-07-01T08:57:20;0.40;;;0.40;;
70410;SDS011;57832;46.038;11.398;2022-07-01T08:59:59;0.40;;;0.40;;
70410;SDS011;57832;46.038;11.398;2022-07-01T09:02:26;0.60;;;0.60;;
70410;SDS011;57832;46.038;11.398;2022-07-01T09:05:04;0.50;;;0.50;;
70410;SDS011;57832;46.038;11.398;2022-07-01T09:07:35;0.60;;;0.60;;
70410;SDS011;57832;46.038;11.398;2022-07-01T09:10:11;0.80;;;0.80;;
70410;SDS011;57832;46.038;11.398;2022-07-01T09:12:43;0.60;;;0.60;;
70410;SDS011;57832;46.038;11.398;2022-07-01T09:17:52;0.90;;;0.90;;
70410;SDS011;57832;46.038;11.398;2022-07-01T09:20:23;0.70;;;0.70;;
70410;SDS011;57832;46.038;11.398;2022-07-01T09:23:00;1.00;;;1.00;;
70410;SDS011;57832;46.038;11.398;2022-07-01T09:25:36;0.93;;;0.93;;
70410;SDS011;57832;46.038;11.398;2022-07-01T09:28:10;0.90;;;0.90;;
70410;SDS011;57832;46.038;11.398;2022-07-01T09:30:38;0.60;;;0.60;;
70410;SDS011;57832;46.038;11.398;2022-07-01T09:33:06;0.50;;;0.50;;
70410;SDS011;57832;46.038;11.398;2022-07-01T09:35:33;0.30;;;0.30;;
70410;SDS011;57832;46.038;11.398;2022-07-01T09:38:00;0.20;;;0.20;;
70410;SDS011;57832;46.038;11.398;2022-07-01T09:40:25;0.10;;;0.10;;
70410;SDS011;57832;46.038;11.398;2022-07-01T09:43:13;0.13;;;0.13;;
70410;SDS011;57832;46.038;11.398;2022-07-01T09:45:49;0.10;;;0.10;;
70410;SDS011;57832;46.038;11.398;2022-07-01T09:48:15;0.10;;;0.10;;
70410;SDS011;57832;46.038;11.398;2022-07-01T09:50:41;0.10;;;0.10;;
70410;SDS011;57832;46.038;11.398;2022-07-01T09:53:06;0.10;;;0.10;;
70410;SDS011;57832;46.038;11.398;2022-07-01T09:55:33;0.00;;;0.00;;
70410;SDS011;57832;46.038;11.398;2022-07-01T09:57:59;0.00;;;0.00;;
70410;SDS011;57832;46.038;11.398;2022-07-01T10:00:25;0.10;;;0.10;;
70410;SDS011;57832;46.038;11.398;2022-07-01T10:02:52;0.10;;;0.10;;
70410;SDS011;57832;46.038;11.398;2022-07-01T10:05:19;0.08;;;0.08;;
70410;SDS011;57832;46.038;11.398;2022-07-01T10:10:51;0.10;;;0.10;;
70410;SDS011;57832;46.038;11.398;2022-07-01T10:13:31;0.10;;;0.10;;
70410;SDS011;57832;46.038;11.398;2022-07-01T10:16:00;0.10;;;0.10;;
70410;SDS011;57832;46.038;11.398;2022-07-01T10:18:28;0.10;;;0.10;;
70410;SDS011;57832;46.038;11.398;2022-07-01T10:20:54;0.00;;;0.00;;
70410;SDS011;57832;46.038;11.398;2022-07-01T10:23:22;0.00;;;0.00;;
70410;SDS011;57832;46.038;11.398;2022-07-01T10:25:53;0.10;;;0.10;;
70410;SDS011;57832;46.038;11.398;2022-07-01T10:28:29;0.10;;;0.10;;
70410;SDS011;57832;46.038;11.398;2022-07-01T10:31:07;0.10;;;0.10;;
70410;SDS011;57832;46.038;11.398;2022-07-01T10:36:14;0.10;;;0.10;;
70410;SDS011;57832;46.038;11.398;2022-07-01T10:44:20;0.00;;;0.00;;
70410;SDS011;57832;46.038;11.398;2022-07-01T10:49:13;0.10;;;0.10;;
70410;SDS011;57832;46.038;11.398;2022-07-01T10:51:53;0.00;;;0.00;;
70410;SDS011;57832;46.038;11.398;2022-07-01T11:02:24;0.10;;;0.10;;
70410;SDS011;57832;46.038;11.398;2022-07-01T11:04:54;0.10;;;0.10;;
70410;SDS011;57832;46.038;11.398;2022-07-01T11:07:23;0.00;;;0.00;;
70410;SDS011;57832;46.038;11.398;2022-07-01T11:09:50;0.00;;;0.00;;
70410;SDS011;57832;46.038;11.398;2022-07-01T11:12:15;0.10;;;0.10;;
70410;SDS011;57832;46.038;11.398;2022-07-01T11:14:44;0.10;;;0.10;;
70410;SDS011;57832;46.038;11.398;2022-07-01T11:17:10;0.10;;;0.10;;
70410;SDS011;57832;46.038;11.398;2022-07-01T11:19:35;0.20;;;0.20;;
70410;SDS011;57832;46.038;11.398;2022-07-01T11:22:02;0.20;;;0.20;;
70410;SDS011;57832;46.038;11.398;2022-07-01T11:24:28;0.20;;;0.20;;
70410;SDS011;57832;46.038;11.398;2022-07-01T11:27:00;0.20;;;0.20;;
70410;SDS011;57832;46.038;11.398;2022-07-01T11:29:31;0.15;;;0.15;;
70410;SDS011;57832;46.038;11.398;2022-07-01T11:31:57;0.17;;;0.17;;
70410;SDS011;57832;46.038;11.398;2022-07-01T11:34:23;0.22;;;0.22;;
70410;SDS011;57832;46.038;11.398;2022-07-01T11:36:53;0.30;;;0.30;;
70410;SDS011;57832;46.038;11.398;2022-07-01T11:39:39;0.20;;;0.20;;
70410;SDS011;57832;46.038;11.398;2022-07-01T11:42:07;0.20;;;0.20;;
70410;SDS011;57832;46.038;11.398;2022-07-01T11:44:34;0.10;;;0.10;;
70410;SDS011;57832;46.038;11.398;2022-07-01T11:47:02;0.10;;;0.10;;
70410;SDS011;57832;46.038;11.398;2022-07-01T11:49:29;0.10;;;0.10;;
70410;SDS011;57832;46.038;11.398;2022-07-01T11:51:56;0.10;;;0.10;;
70410;SDS011;57832;46.038;11.398;2022-07-01T11:54:26;0.10;;;0.10;;
70410;SDS011;57832;46.038;11.398;2022-07-01T11:56:52;0.10;;;0.10;;
70410;SDS011;57832;46.038;11.398;2022-07-01T11:59:18;0.17;;;0.17;;
70410;SDS011;57832;46.038;11.398;2022-07-01T12:01:53;0.00;;;0.00;;
70410;SDS011;57832;46.038;11.398;2022-07-01T12:04:20;0.00;;;0.00;;
70410;SDS011;57832;46.038;11.398;2022-07-01T12:06:46;0.00;;;0.00;;
70410;SDS011;57832;46.038;11.398;2022-07-01T12:09:15;0.10;;;0.10;;
70410;SDS011;57832;46.038;11.398;2022-07-01T12:11:46;0.00;;;0.00;;
70410;SDS011;57832;46.038;11.398;2022-07-01T12:14:29;0.00;;;0.00;;
70410;SDS011;57832;46.038;11.398;2022-07-01T12:16:58;0.00;;;0.00;;
70410;SDS011;57832;46.038;11.398;2022-07-01T12:22:05;0.00;;;0.00;;
70410;SDS011;57832;46.038;11.398;2022-07-01T12:24:33;0.00;;;0.00;;
70410;SDS011;57832;46.038;11.398;2022-07-01T12:29:27;0.00;;;0.00;;
70410;SDS011;57832;46.038;11.398;2022-07-01T12:31:55;0.00;;;0.00;;
70410;SDS011;57832;46.038;11.398;2022-07-01T12:34:44;0.00;;;0.00;;
70410;SDS011;57832;46.038;11.398;2022-07-01T12:37:46;0.00;;;0.00;;
70410;SDS011;57832;46.038;11.398;2022-07-01T12:40:06;0.00;;;0.00;;
70410;SDS011;57832;46.038;11.398;2022-07-01T12:42:34;0.00;;;0.00;;
70410;SDS011;57832;46.038;11.398;2022-07-01T12:45:08;0.00;;;0.00;;
70410;SDS011;57832;46.038;11.398;2022-07-01T12:47:36;0.00;;;0.00;;
70410;SDS011;57832;46.038;11.398;2022-07-01T12:55:25;0.00;;;0.00;;
70410;SDS011;57832;46.038;11.398;2022-07-01T12:57:53;0.00;;;0.00;;
70410;SDS011;57832;46.038;11.398;2022-07-01T13:00:20;0.00;;;0.00;;
70410;SDS011;57832;46.038;11.398;2022-07-01T13:02:50;0.00;;;0.00;;
70410;SDS011;57832;46.038;11.398;2022-07-01T13:05:16;0.00;;;0.00;;
70410;SDS011;57832;46.038;11.398;2022-07-01T13:07:42;0.00;;;0.00;;
70410;SDS011;57832;46.038;11.398;2022-07-01T13:10:08;0.00;;;0.00;;
70410;SDS011;57832;46.038;11.398;2022-07-01T13:12:34;0.00;;;0.00;;
70410;SDS011;57832;46.038;11.398;2022-07-01T13:14:59;0.00;;;0.00;;
70410;SDS011;57832;46.038;11.398;2022-07-01T13:17:25;0.00;;;0.00;;
70410;SDS011;57832;46.038;11.398;2022-07-01T13:19:52;0.00;;;0.00;;
70410;SDS011;57832;46.038;11.398;2022-07-01T13:22:18;0.00;;;0.00;;
70410;SDS011;57832;46.038;11.398;2022-07-01T13:24:43;0.00;;;0.00;;
70410;SDS011;57832;46.038;11.398;2022-07-01T13:27:09;0.00;;;0.00;;
70410;SDS011;57832;46.038;11.398;2022-07-01T13:29:35;0.00;;;0.00;;
70410;SDS011;57832;46.038;11.398;2022-07-01T13:32:01;0.00;;;0.00;;
70410;SDS011;57832;46.038;11.398;2022-07-01T13:34:27;0.00;;;0.00;;
70410;SDS011;57832;46.038;11.398;2022-07-01T13:36:53;0.00;;;0.00;;
70410;SDS011;57832;46.038;11.398;2022-07-01T13:39:18;0.00;;;0.00;;
70410;SDS011;57832;46.038;11.398;2022-07-01T13:41:44;0.00;;;0.00;;
70410;SDS011;57832;46.038;11.398;2022-07-01T13:44:10;0.00;;;0.00;;
70410;SDS011;57832;46.038;11.398;2022-07-01T13:46:35;0.00;;;0.00;;
70410;SDS011;57832;46.038;11.398;2022-07-01T13:49:01;0.00;;;0.00;;
70410;SDS011;57832;46.038;11.398;2022-07-01T13:51:27;0.00;;;0.00;;
70410;SDS011;57832;46.038;11.398;2022-07-01T13:53:52;0.00;;;0.00;;
70410;SDS011;57832;46.038;11.398;2022-07-01T13:56:18;0.00;;;0.00;;
70410;SDS011;57832;46.038;11.398;2022-07-01T13:58:44;0.00;;;0.00;;
70410;SDS011;57832;46.038;11.398;2022-07-01T14:01:09;0.00;;;0.00;;
70410;SDS011;57832;46.038;11.398;2022-07-01T14:03:35;0.00;;;0.00;;
70410;SDS011;57832;46.038;11.398;2022-07-01T14:06:01;0.00;;;0.00;;
70410;SDS011;57832;46.038;11.398;2022-07-01T14:08:26;0.00;;;0.00;;
70410;SDS011;57832;46.038;11.398;2022-07-01T14:10:53;0.00;;;0.00;;
70410;SDS011;57832;46.038;11.398;2022-07-01T14:13:19;0.00;;;0.00;;
70410;SDS011;57832;46.038;11.398;2022-07-01T14:15:46;0.00;;;0.00;;
70410;SDS011;57832;46.038;11.398;2022-07-01T14:18:12;0.00;;;0.00;;
70410;SDS011;57832;46.038;11.398;2022-07-01T14:20:39;0.00;;;0.00;;
70410;SDS011;57832;46.038;11.398;2022-07-01T14:23:05;0.00;;;0.00;;
70410;SDS011;57832;46.038;11.398;2022-07-01T14:25:31;0.00;;;0.00;;
70410;SDS011;57832;46.038;11.398;2022-07-01T14:27:56;0.00;;;0.00;;
70410;SDS011;57832;46.038;11.398;2022-07-01T14:30:22;0.00;;;0.00;;
70410;SDS011;57832;46.038;11.398;2022-07-01T14:32:48;0.00;;;0.00;;
70410;SDS011;57832;46.038;11.398;2022-07-01T14:35:13;0.00;;;0.00;;
70410;SDS011;57832;46.038;11.398;2022-07-01T14:37:39;0.00;;;0.00;;
70410;SDS011;57832;46.038;11.398;2022-07-01T14:40:07;0.00;;;0.00;;
70410;SDS011;57832;46.038;11.398;2022-07-01T14:42:34;0.00;;;0.00;;
70410;SDS011;57832;46.038;11.398;2022-07-01T14:45:00;0.00;;;0.00;;
70410;SDS011;57832;46.038;11.398;2022-07-01T14:47:26;0.00;;;0.00;;
70410;SDS011;57832;46.038;11.398;2022-07-01T14:49:51;0.00;;;0.00;;
70410;SDS011;57832;46.038;11.398;2022-07-01T14:52:18;0.00;;;0.00;;
70410;SDS011;57832;46.038;11.398;2022-07-01T14:54:44;0.00;;;0.00;;
70410;SDS011;57832;46.038;11.398;2022-07-01T14:57:10;0.00;;;0.00;;
70410;SDS011;57832;46.038;11.398;2022-07-01T14:59:36;0.00;;;0.00;;
70410;SDS011;57832;46.038;11.398;2022-07-01T15:02:02;0.00;;;0.00;;
70410;SDS011;57832;46.038;11.398;2022-07-01T15:04:32;0.00;;;0.00;;
70410;SDS011;57832;46.038;11.398;2022-07-01T15:06:58;0.00;;;0.00;;
70410;SDS011;57832;46.038;11.398;2022-07-01T15:09:24;0.00;;;0.00;;
70410;SDS011;57832;46.038;11.398;2022-07-01T15:11:51;0.00;;;0.00;;
70410;SDS011;57832;46.038;11.398;2022-07-01T15:14:17;0.00;;;0.00;;
70410;SDS011;57832;46.038;11.398;2022-07-01T15:16:43;0.00;;;0.00;;
70410;SDS011;57832;46.038;11.398;2022-07-01T15:19:09;0.00;;;0.00;;
70410;SDS011;57832;46.038;11.398;2022-07-01T15:21:35;0.00;;;0.00;;
70410;SDS011;57832;46.038;11.398;2022-07-01T15:24:01;0.00;;;0.00;;
70410;SDS011;57832;46.038;11.398;2022-07-01T15:26:27;0.00;;;0.00;;
70410;SDS011;57832;46.038;11.398;2022-07-01T15:28:52;0.00;;;0.00;;
70410;SDS011;57832;46.038;11.398;2022-07-01T15:31:18;0.00;;;0.00;;
70410;SDS011;57832;46.038;11.398;2022-07-01T15:33:44;0.00;;;0.00;;
70410;SDS011;57832;46.038;11.398;2022-07-01T15:36:10;0.00;;;0.00;;
70410;SDS011;57832;46.038;11.398;2022-07-01T15:38:36;0.00;;;0.00;;
70410;SDS011;57832;46.038;11.398;2022-07-01T15:41:03;0.00;;;0.00;;
70410;SDS011;57832;46.038;11.398;2022-07-01T15:43:31;0.00;;;0.00;;
70410;SDS011;57832;46.038;11.398;2022-07-01T15:45:57;0.00;;;0.00;;
70410;SDS011;57832;46.038;11.398;2022-07-01T15:48:23;0.00;;;0.00;;
70410;SDS011;57832;46.038;11.398;2022-07-01T15:50:49;0.00;;;0.00;;
70410;SDS011;57832;46.038;11.398;2022-07-01T15:53:15;0.00;;;0.00;;
70410;SDS011;57832;46.038;11.398;2022-07-01T15:55:42;0.00;;;0.00;;
70410;SDS011;57832;46.038;11.398;2022-07-01T16:00:41;0.00;;;0.00;;
70410;SDS011;57832;46.038;11.398;2022-07-01T16:03:10;0.00;;;0.00;;
70410;SDS011;57832;46.038;11.398;2022-07-01T16:05:37;0.00;;;0.00;;
70410;SDS011;57832;46.038;11.398;2022-07-01T16:08:04;0.00;;;0.00;;
70410;SDS011;57832;46.038;11.398;2022-07-01T16:10:48;0.00;;;0.00;;
70410;SDS011;57832;46.038;11.398;2022-07-01T16:13:21;0.00;;;0.00;;
70410;SDS011;57832;46.038;11.398;2022-07-01T16:15:48;0.00;;;0.00;;
70410;SDS011;57832;46.038;11.398;2022-07-01T16:18:16;0.00;;;0.00;;
70410;SDS011;57832;46.038;11.398;2022-07-01T16:23:10;0.00;;;0.00;;
70410;SDS011;57832;46.038;11.398;2022-07-01T16:25:39;0.00;;;0.00;;
70410;SDS011;57832;46.038;11.398;2022-07-01T16:28:06;0.00;;;0.00;;